sensor_id;sensor_type;location;lat;lon;timestamp;temperature;humidity
37806;DHT22;25082;50.870;0.022;2023-11-19T00:00:37;18.60;77.10
37806;DHT22;25082;50.870;0.022;2023-11-19T00:03:03;18.60;77.00
37806;DHT22;25082;50.870;0.022;2023-11-19T00:05:28;18.60;77.00
37806;DHT22;25082;50.870;0.022;2023-11-19T00:07:54;18.60;77.00
37806;DHT22;25082;50.870;0.022;2023-11-19T00:10:20;18.50;77.00
37806;DHT22;25082;50.870;0.022;2023-11-19T00:12:48;18.50;77.10
37806;DHT22;25082;50.870;0.022;2023-11-19T00:15:14;18.50;77.10
37806;DHT22;25082;50.870;0.022;2023-11-19T00:17:41;18.50;77.20
37806;DHT22;25082;50.870;0.022;2023-11-19T00:20:17;18.50;77.20
37806;DHT22;25082;50.870;0.022;2023-11-19T00:22:44;18.50;77.30
37806;DHT22;25082;50.870;0.022;2023-11-19T00:25:11;18.50;77.20
37806;DHT22;25082;50.870;0.022;2023-11-19T00:27:37;18.50;77.20
37806;DHT22;25082;50.870;0.022;2023-11-19T00:30:04;18.50;77.20
37806;DHT22;25082;50.870;0.022;2023-11-19T00:32:34;18.50;77.20
37806;DHT22;25082;50.870;0.022;2023-11-19T00:35:00;18.50;77.20
37806;DHT22;25082;50.870;0.022;2023-11-19T00:37:26;18.50;77.20
37806;DHT22;25082;50.870;0.022;2023-11-19T00:39:52;18.50;77.20
37806;DHT22;25082;50.870;0.022;2023-11-19T00:42:17;18.40;77.10
37806;DHT22;25082;50.870;0.022;2023-11-19T00:44:43;18.50;77.10
37806;DHT22;25082;50.870;0.022;2023-11-19T00:47:09;18.50;77.10
37806;DHT22;25082;50.870;0.022;2023-11-19T00:49:34;18.40;77.00
37806;DHT22;25082;50.870;0.022;2023-11-19T00:52:01;18.40;76.90
37806;DHT22;25082;50.870;0.022;2023-11-19T00:54:27;18.40;76.90
37806;DHT22;25082;50.870;0.022;2023-11-19T00:56:53;18.40;76.90
37806;DHT22;25082;50.870;0.022;2023-11-19T00:59:19;18.40;76.90
37806;DHT22;25082;50.870;0.022;2023-11-19T01:01:45;18.40;76.90
37806;DHT22;25082;50.870;0.022;2023-11-19T01:04:11;18.40;76.90
37806;DHT22;25082;50.870;0.022;2023-11-19T01:06:36;18.40;76.90
37806;DHT22;25082;50.870;0.022;2023-11-19T01:09:02;18.40;76.80
37806;DHT22;25082;50.870;0.022;2023-11-19T01:11:28;18.40;76.90
37806;DHT22;25082;50.870;0.022;2023-11-19T01:13:54;18.40;76.90
37806;DHT22;25082;50.870;0.022;2023-11-19T01:16:20;18.40;76.90
37806;DHT22;25082;50.870;0.022;2023-11-19T01:18:49;18.40;76.90
37806;DHT22;25082;50.870;0.022;2023-11-19T01:21:15;18.40;76.90
37806;DHT22;25082;50.870;0.022;2023-11-19T01:23:44;18.40;76.90
37806;DHT22;25082;50.870;0.022;2023-11-19T01:26:11;18.40;76.80
37806;DHT22;25082;50.870;0.022;2023-11-19T01:28:39;18.30;76.80
37806;DHT22;25082;50.870;0.022;2023-11-19T01:31:14;18.30;76.90
37806;DHT22;25082;50.870;0.022;2023-11-19T01:33:40;18.30;76.80
37806;DHT22;25082;50.870;0.022;2023-11-19T01:36:07;18.40;76.90
37806;DHT22;25082;50.870;0.022;2023-11-19T01:38:34;18.30;76.80
37806;DHT22;25082;50.870;0.022;2023-11-19T01:41:00;18.30;76.80
37806;DHT22;25082;50.870;0.022;2023-11-19T01:43:32;18.30;76.80
37806;DHT22;25082;50.870;0.022;2023-11-19T01:45:58;18.30;76.80
37806;DHT22;25082;50.870;0.022;2023-11-19T01:48:24;18.30;76.80
37806;DHT22;25082;50.870;0.022;2023-11-19T01:50:50;18.30;76.80
37806;DHT22;25082;50.870;0.022;2023-11-19T01:53:18;18.30;76.90
37806;DHT22;25082;50.870;0.022;2023-11-19T01:55:44;18.30;76.80
37806;DHT22;25082;50.870;0.022;2023-11-19T01:58:10;18.30;76.80
37806;DHT22;25082;50.870;0.022;2023-11-19T02:00:37;18.30;76.80
37806;DHT22;25082;50.870;0.022;2023-11-19T02:03:07;18.30;76.80
37806;DHT22;25082;50.870;0.022;2023-11-19T02:05:34;18.30;76.80
37806;DHT22;25082;50.870;0.022;2023-11-19T02:08:00;18.30;76.80
37806;DHT22;25082;50.870;0.022;2023-11-19T02:10:26;18.30;76.70
37806;DHT22;25082;50.870;0.022;2023-11-19T02:12:52;18.30;76.70
37806;DHT22;25082;50.870;0.022;2023-11-19T02:15:18;18.20;76.70
37806;DHT22;25082;50.870;0.022;2023-11-19T02:17:50;18.30;76.70
37806;DHT22;25082;50.870;0.022;2023-11-19T02:20:16;18.20;76.60
37806;DHT22;25082;50.870;0.022;2023-11-19T02:22:48;18.20;76.60
37806;DHT22;25082;50.870;0.022;2023-11-19T02:25:30;18.20;76.60
37806;DHT22;25082;50.870;0.022;2023-11-19T02:27:58;18.20;76.60
37806;DHT22;25082;50.870;0.022;2023-11-19T02:30:25;18.20;76.50
37806;DHT22;25082;50.870;0.022;2023-11-19T02:32:55;18.20;76.50
37806;DHT22;25082;50.870;0.022;2023-11-19T02:35:25;18.20;76.50
37806;DHT22;25082;50.870;0.022;2023-11-19T02:37:51;18.20;76.50
37806;DHT22;25082;50.870;0.022;2023-11-19T02:40:17;18.20;76.50
37806;DHT22;25082;50.870;0.022;2023-11-19T02:42:43;18.20;76.50
37806;DHT22;25082;50.870;0.022;2023-11-19T02:45:09;18.20;76.50
37806;DHT22;25082;50.870;0.022;2023-11-19T02:47:43;18.20;76.40
37806;DHT22;25082;50.870;0.022;2023-11-19T02:50:10;18.20;76.50
37806;DHT22;25082;50.870;0.022;2023-11-19T02:52:43;18.20;76.50
37806;DHT22;25082;50.870;0.022;2023-11-19T02:55:10;18.20;76.40
37806;DHT22;25082;50.870;0.022;2023-11-19T02:57:38;18.20;76.50
37806;DHT22;25082;50.870;0.022;2023-11-19T03:00:21;18.20;76.50
37806;DHT22;25082;50.870;0.022;2023-11-19T03:02:57;18.10;76.40
37806;DHT22;25082;50.870;0.022;2023-11-19T03:05:35;18.20;76.40
37806;DHT22;25082;50.870;0.022;2023-11-19T03:08:01;18.20;76.40
37806;DHT22;25082;50.870;0.022;2023-11-19T03:10:26;18.20;76.40
37806;DHT22;25082;50.870;0.022;2023-11-19T03:12:52;18.20;76.40
37806;DHT22;25082;50.870;0.022;2023-11-19T03:15:18;18.10;76.30
37806;DHT22;25082;50.870;0.022;2023-11-19T03:17:44;18.10;76.30
37806;DHT22;25082;50.870;0.022;2023-11-19T03:20:11;18.10;76.30
37806;DHT22;25082;50.870;0.022;2023-11-19T03:22:41;18.10;76.30
37806;DHT22;25082;50.870;0.022;2023-11-19T03:25:10;18.10;76.30
37806;DHT22;25082;50.870;0.022;2023-11-19T03:27:39;18.10;76.30
37806;DHT22;25082;50.870;0.022;2023-11-19T03:30:10;18.10;76.30
37806;DHT22;25082;50.870;0.022;2023-11-19T03:32:36;18.10;76.30
37806;DHT22;25082;50.870;0.022;2023-11-19T03:35:02;18.10;76.20
37806;DHT22;25082;50.870;0.022;2023-11-19T03:37:30;18.10;76.20
37806;DHT22;25082;50.870;0.022;2023-11-19T03:39:57;18.10;76.30
37806;DHT22;25082;50.870;0.022;2023-11-19T03:42:29;18.10;76.30
37806;DHT22;25082;50.870;0.022;2023-11-19T03:44:57;18.10;76.30
37806;DHT22;25082;50.870;0.022;2023-11-19T03:47:23;18.10;76.30
37806;DHT22;25082;50.870;0.022;2023-11-19T03:49:50;18.10;76.20
37806;DHT22;25082;50.870;0.022;2023-11-19T03:52:18;18.10;76.20
37806;DHT22;25082;50.870;0.022;2023-11-19T03:54:45;18.00;76.20
37806;DHT22;25082;50.870;0.022;2023-11-19T03:57:14;18.10;76.20
37806;DHT22;25082;50.870;0.022;2023-11-19T03:59:41;18.10;76.20
37806;DHT22;25082;50.870;0.022;2023-11-19T04:02:07;18.00;76.20
37806;DHT22;25082;50.870;0.022;2023-11-19T04:04:33;18.00;76.20
37806;DHT22;25082;50.870;0.022;2023-11-19T04:07:00;18.10;76.20
37806;DHT22;25082;50.870;0.022;2023-11-19T04:09:26;18.10;76.20
37806;DHT22;25082;50.870;0.022;2023-11-19T04:11:52;18.00;76.10
37806;DHT22;25082;50.870;0.022;2023-11-19T04:14:17;18.00;76.10
37806;DHT22;25082;50.870;0.022;2023-11-19T04:16:46;18.00;76.10
37806;DHT22;25082;50.870;0.022;2023-11-19T04:19:12;18.00;76.20
37806;DHT22;25082;50.870;0.022;2023-11-19T04:21:41;18.00;76.20
37806;DHT22;25082;50.870;0.022;2023-11-19T04:24:09;18.00;76.10
37806;DHT22;25082;50.870;0.022;2023-11-19T04:26:43;18.00;76.10
37806;DHT22;25082;50.870;0.022;2023-11-19T04:29:14;18.00;76.10
37806;DHT22;25082;50.870;0.022;2023-11-19T04:31:40;18.00;76.10
37806;DHT22;25082;50.870;0.022;2023-11-19T04:34:06;18.00;76.10
37806;DHT22;25082;50.870;0.022;2023-11-19T04:36:33;18.00;76.10
37806;DHT22;25082;50.870;0.022;2023-11-19T04:38:59;18.00;76.10
37806;DHT22;25082;50.870;0.022;2023-11-19T04:41:26;18.00;76.10
37806;DHT22;25082;50.870;0.022;2023-11-19T04:43:53;18.00;76.10
37806;DHT22;25082;50.870;0.022;2023-11-19T04:46:19;18.00;76.10
37806;DHT22;25082;50.870;0.022;2023-11-19T04:48:45;18.00;76.10
37806;DHT22;25082;50.870;0.022;2023-11-19T04:51:11;18.00;76.00
37806;DHT22;25082;50.870;0.022;2023-11-19T04:53:37;18.00;76.00
37806;DHT22;25082;50.870;0.022;2023-11-19T04:56:08;18.00;76.10
37806;DHT22;25082;50.870;0.022;2023-11-19T04:58:34;18.00;76.60
37806;DHT22;25082;50.870;0.022;2023-11-19T05:01:03;18.00;76.00
37806;DHT22;25082;50.870;0.022;2023-11-19T05:03:29;18.00;76.00
37806;DHT22;25082;50.870;0.022;2023-11-19T05:05:55;18.00;76.00
37806;DHT22;25082;50.870;0.022;2023-11-19T05:08:21;18.00;76.00
37806;DHT22;25082;50.870;0.022;2023-11-19T05:10:46;17.90;75.90
37806;DHT22;25082;50.870;0.022;2023-11-19T05:13:12;17.90;75.90
37806;DHT22;25082;50.870;0.022;2023-11-19T05:15:38;17.90;75.90
37806;DHT22;25082;50.870;0.022;2023-11-19T05:18:04;17.90;75.90
37806;DHT22;25082;50.870;0.022;2023-11-19T05:20:31;17.90;75.90
37806;DHT22;25082;50.870;0.022;2023-11-19T05:22:56;17.90;75.90
37806;DHT22;25082;50.870;0.022;2023-11-19T05:25:22;17.90;75.90
37806;DHT22;25082;50.870;0.022;2023-11-19T05:27:48;17.90;75.90
37806;DHT22;25082;50.870;0.022;2023-11-19T05:30:14;17.90;75.90
37806;DHT22;25082;50.870;0.022;2023-11-19T05:32:39;17.90;75.90
37806;DHT22;25082;50.870;0.022;2023-11-19T05:35:06;17.90;75.90
37806;DHT22;25082;50.870;0.022;2023-11-19T05:37:32;17.90;76.40
37806;DHT22;25082;50.870;0.022;2023-11-19T05:40:00;17.90;75.80
37806;DHT22;25082;50.870;0.022;2023-11-19T05:42:28;17.90;75.80
37806;DHT22;25082;50.870;0.022;2023-11-19T05:44:54;17.90;75.80
37806;DHT22;25082;50.870;0.022;2023-11-19T05:47:20;17.90;75.90
37806;DHT22;25082;50.870;0.022;2023-11-19T05:49:45;17.90;75.80
37806;DHT22;25082;50.870;0.022;2023-11-19T05:52:11;17.90;75.80
37806;DHT22;25082;50.870;0.022;2023-11-19T05:54:38;17.90;75.80
37806;DHT22;25082;50.870;0.022;2023-11-19T05:57:07;17.90;75.80
37806;DHT22;25082;50.870;0.022;2023-11-19T05:59:36;17.90;75.80
37806;DHT22;25082;50.870;0.022;2023-11-19T06:02:02;17.90;75.80
37806;DHT22;25082;50.870;0.022;2023-11-19T06:04:28;17.90;75.80
37806;DHT22;25082;50.870;0.022;2023-11-19T06:06:54;17.90;75.80
37806;DHT22;25082;50.870;0.022;2023-11-19T06:09:23;17.90;75.80
37806;DHT22;25082;50.870;0.022;2023-11-19T06:11:50;17.90;75.80
37806;DHT22;25082;50.870;0.022;2023-11-19T06:14:16;17.80;76.30
37806;DHT22;25082;50.870;0.022;2023-11-19T06:16:42;17.90;75.80
37806;DHT22;25082;50.870;0.022;2023-11-19T06:19:08;17.80;75.70
37806;DHT22;25082;50.870;0.022;2023-11-19T06:21:33;17.80;75.70
37806;DHT22;25082;50.870;0.022;2023-11-19T06:24:01;17.80;75.70
37806;DHT22;25082;50.870;0.022;2023-11-19T06:26:27;17.80;75.70
37806;DHT22;25082;50.870;0.022;2023-11-19T06:28:52;17.80;75.70
37806;DHT22;25082;50.870;0.022;2023-11-19T06:31:18;17.80;75.70
37806;DHT22;25082;50.870;0.022;2023-11-19T06:33:44;17.80;75.70
37806;DHT22;25082;50.870;0.022;2023-11-19T06:36:10;17.80;75.70
37806;DHT22;25082;50.870;0.022;2023-11-19T06:38:35;17.80;75.70
37806;DHT22;25082;50.870;0.022;2023-11-19T06:41:01;17.80;75.70
37806;DHT22;25082;50.870;0.022;2023-11-19T06:43:27;17.80;75.70
37806;DHT22;25082;50.870;0.022;2023-11-19T06:45:54;17.80;75.70
37806;DHT22;25082;50.870;0.022;2023-11-19T06:48:19;17.80;75.70
37806;DHT22;25082;50.870;0.022;2023-11-19T06:50:45;17.80;75.70
37806;DHT22;25082;50.870;0.022;2023-11-19T06:53:11;17.80;75.70
37806;DHT22;25082;50.870;0.022;2023-11-19T06:55:37;17.80;75.70
37806;DHT22;25082;50.870;0.022;2023-11-19T06:58:02;17.80;75.70
37806;DHT22;25082;50.870;0.022;2023-11-19T07:00:29;17.80;75.70
37806;DHT22;25082;50.870;0.022;2023-11-19T07:02:55;17.80;75.70
37806;DHT22;25082;50.870;0.022;2023-11-19T07:05:21;17.80;75.60
37806;DHT22;25082;50.870;0.022;2023-11-19T07:07:47;17.80;75.60
37806;DHT22;25082;50.870;0.022;2023-11-19T07:10:13;17.70;75.60
37806;DHT22;25082;50.870;0.022;2023-11-19T07:12:38;17.80;75.60
37806;DHT22;25082;50.870;0.022;2023-11-19T07:15:04;17.80;75.40
37806;DHT22;25082;50.870;0.022;2023-11-19T07:17:34;17.80;75.40
37806;DHT22;25082;50.870;0.022;2023-11-19T07:20:00;17.80;75.30
37806;DHT22;25082;50.870;0.022;2023-11-19T07:22:26;17.80;75.30
37806;DHT22;25082;50.870;0.022;2023-11-19T07:24:54;17.80;75.20
37806;DHT22;25082;50.870;0.022;2023-11-19T07:27:20;17.90;75.30
37806;DHT22;25082;50.870;0.022;2023-11-19T07:29:46;17.90;75.30
37806;DHT22;25082;50.870;0.022;2023-11-19T07:32:11;17.90;75.30
37806;DHT22;25082;50.870;0.022;2023-11-19T07:34:39;17.90;75.30
37806;DHT22;25082;50.870;0.022;2023-11-19T07:37:05;17.90;75.30
37806;DHT22;25082;50.870;0.022;2023-11-19T07:39:31;17.90;75.20
37806;DHT22;25082;50.870;0.022;2023-11-19T07:41:56;17.90;75.20
37806;DHT22;25082;50.870;0.022;2023-11-19T07:44:22;17.90;75.30
37806;DHT22;25082;50.870;0.022;2023-11-19T07:46:48;17.90;75.20
37806;DHT22;25082;50.870;0.022;2023-11-19T07:49:14;17.90;75.20
37806;DHT22;25082;50.870;0.022;2023-11-19T07:51:39;17.90;75.20
37806;DHT22;25082;50.870;0.022;2023-11-19T07:54:05;17.90;75.20
37806;DHT22;25082;50.870;0.022;2023-11-19T07:56:34;17.90;75.20
37806;DHT22;25082;50.870;0.022;2023-11-19T07:59:01;18.00;75.20
37806;DHT22;25082;50.870;0.022;2023-11-19T08:01:27;18.00;75.20
37806;DHT22;25082;50.870;0.022;2023-11-19T08:03:53;18.00;75.20
37806;DHT22;25082;50.870;0.022;2023-11-19T08:06:19;18.00;75.20
37806;DHT22;25082;50.870;0.022;2023-11-19T08:08:45;18.00;75.20
37806;DHT22;25082;50.870;0.022;2023-11-19T08:11:10;18.00;75.20
37806;DHT22;25082;50.870;0.022;2023-11-19T08:13:36;18.00;75.10
37806;DHT22;25082;50.870;0.022;2023-11-19T08:16:02;18.00;75.10
37806;DHT22;25082;50.870;0.022;2023-11-19T08:18:27;18.00;75.10
37806;DHT22;25082;50.870;0.022;2023-11-19T08:20:53;18.00;75.10
37806;DHT22;25082;50.870;0.022;2023-11-19T08:23:19;18.00;75.10
37806;DHT22;25082;50.870;0.022;2023-11-19T08:25:46;18.00;75.10
37806;DHT22;25082;50.870;0.022;2023-11-19T08:28:12;18.00;75.10
37806;DHT22;25082;50.870;0.022;2023-11-19T08:30:38;18.00;75.20
37806;DHT22;25082;50.870;0.022;2023-11-19T08:33:03;18.00;75.10
37806;DHT22;25082;50.870;0.022;2023-11-19T08:35:31;18.10;75.20
37806;DHT22;25082;50.870;0.022;2023-11-19T08:37:57;18.10;75.20
37806;DHT22;25082;50.870;0.022;2023-11-19T08:40:24;18.10;75.20
37806;DHT22;25082;50.870;0.022;2023-11-19T08:42:51;18.10;75.20
37806;DHT22;25082;50.870;0.022;2023-11-19T08:45:17;18.10;75.20
37806;DHT22;25082;50.870;0.022;2023-11-19T08:47:43;18.10;75.20
37806;DHT22;25082;50.870;0.022;2023-11-19T08:50:11;18.10;75.10
37806;DHT22;25082;50.870;0.022;2023-11-19T08:52:37;18.10;75.10
37806;DHT22;25082;50.870;0.022;2023-11-19T08:55:02;18.10;75.10
37806;DHT22;25082;50.870;0.022;2023-11-19T08:57:31;18.10;75.10
37806;DHT22;25082;50.870;0.022;2023-11-19T08:59:56;18.20;75.20
37806;DHT22;25082;50.870;0.022;2023-11-19T09:02:22;18.10;75.10
37806;DHT22;25082;50.870;0.022;2023-11-19T09:04:48;18.20;75.10
37806;DHT22;25082;50.870;0.022;2023-11-19T09:07:13;18.10;75.10
37806;DHT22;25082;50.870;0.022;2023-11-19T09:09:39;18.20;75.20
37806;DHT22;25082;50.870;0.022;2023-11-19T09:12:05;18.20;75.10
37806;DHT22;25082;50.870;0.022;2023-11-19T09:14:31;18.20;75.20
37806;DHT22;25082;50.870;0.022;2023-11-19T09:16:57;18.20;75.20
37806;DHT22;25082;50.870;0.022;2023-11-19T09:19:24;18.20;75.10
37806;DHT22;25082;50.870;0.022;2023-11-19T09:21:50;18.20;75.10
37806;DHT22;25082;50.870;0.022;2023-11-19T09:24:16;18.20;75.10
37806;DHT22;25082;50.870;0.022;2023-11-19T09:26:42;18.20;75.00
37806;DHT22;25082;50.870;0.022;2023-11-19T09:29:11;18.20;75.00
37806;DHT22;25082;50.870;0.022;2023-11-19T09:31:38;18.30;75.10
37806;DHT22;25082;50.870;0.022;2023-11-19T09:34:04;18.20;75.00
37806;DHT22;25082;50.870;0.022;2023-11-19T09:36:30;18.30;75.00
37806;DHT22;25082;50.870;0.022;2023-11-19T09:38:57;18.20;75.00
37806;DHT22;25082;50.870;0.022;2023-11-19T09:41:23;18.30;75.00
37806;DHT22;25082;50.870;0.022;2023-11-19T09:43:50;18.30;75.00
37806;DHT22;25082;50.870;0.022;2023-11-19T09:46:16;18.30;75.00
37806;DHT22;25082;50.870;0.022;2023-11-19T09:48:42;18.30;75.00
37806;DHT22;25082;50.870;0.022;2023-11-19T09:51:10;18.30;74.90
37806;DHT22;25082;50.870;0.022;2023-11-19T09:53:36;18.30;75.00
37806;DHT22;25082;50.870;0.022;2023-11-19T09:56:05;18.30;74.90
37806;DHT22;25082;50.870;0.022;2023-11-19T09:58:32;18.30;74.90
37806;DHT22;25082;50.870;0.022;2023-11-19T10:00:58;18.30;74.90
37806;DHT22;25082;50.870;0.022;2023-11-19T10:03:26;18.40;74.90
37806;DHT22;25082;50.870;0.022;2023-11-19T10:05:53;18.40;74.90
37806;DHT22;25082;50.870;0.022;2023-11-19T10:08:20;18.40;74.80
37806;DHT22;25082;50.870;0.022;2023-11-19T10:10:46;18.40;74.80
37806;DHT22;25082;50.870;0.022;2023-11-19T10:13:12;18.40;74.70
37806;DHT22;25082;50.870;0.022;2023-11-19T10:15:40;18.40;74.70
37806;DHT22;25082;50.870;0.022;2023-11-19T10:18:06;18.40;74.70
37806;DHT22;25082;50.870;0.022;2023-11-19T10:20:40;18.40;74.70
37806;DHT22;25082;50.870;0.022;2023-11-19T10:23:07;18.40;74.60
37806;DHT22;25082;50.870;0.022;2023-11-19T10:25:33;18.40;74.60
37806;DHT22;25082;50.870;0.022;2023-11-19T10:27:59;18.40;74.60
37806;DHT22;25082;50.870;0.022;2023-11-19T10:30:30;18.50;74.70
37806;DHT22;25082;50.870;0.022;2023-11-19T10:35:33;18.40;74.50
37806;DHT22;25082;50.870;0.022;2023-11-19T10:38:00;18.50;74.60
37806;DHT22;25082;50.870;0.022;2023-11-19T10:40:39;18.50;74.50
37806;DHT22;25082;50.870;0.022;2023-11-19T10:43:08;18.50;74.50
37806;DHT22;25082;50.870;0.022;2023-11-19T10:45:37;18.50;74.50
37806;DHT22;25082;50.870;0.022;2023-11-19T10:48:04;18.50;74.60
37806;DHT22;25082;50.870;0.022;2023-11-19T10:50:34;18.50;74.90
37806;DHT22;25082;50.870;0.022;2023-11-19T10:53:00;18.50;75.10
37806;DHT22;25082;50.870;0.022;2023-11-19T10:55:30;18.60;75.30
37806;DHT22;25082;50.870;0.022;2023-11-19T10:58:01;18.50;75.40
37806;DHT22;25082;50.870;0.022;2023-11-19T11:00:29;18.60;75.70
37806;DHT22;25082;50.870;0.022;2023-11-19T11:03:01;18.60;75.70
37806;DHT22;25082;50.870;0.022;2023-11-19T11:05:31;18.60;75.80
37806;DHT22;25082;50.870;0.022;2023-11-19T11:07:58;18.60;76.30
37806;DHT22;25082;50.870;0.022;2023-11-19T11:10:26;18.60;75.80
37806;DHT22;25082;50.870;0.022;2023-11-19T11:12:52;18.70;75.80
37806;DHT22;25082;50.870;0.022;2023-11-19T11:15:27;18.70;75.90
37806;DHT22;25082;50.870;0.022;2023-11-19T11:18:02;18.70;75.70
37806;DHT22;25082;50.870;0.022;2023-11-19T11:20:32;18.70;75.70
37806;DHT22;25082;50.870;0.022;2023-11-19T11:29:05;18.80;75.90
37806;DHT22;25082;50.870;0.022;2023-11-19T11:31:52;18.70;76.00
37806;DHT22;25082;50.870;0.022;2023-11-19T11:35:45;18.70;76.10
37806;DHT22;25082;50.870;0.022;2023-11-19T11:38:02;18.70;75.70
37806;DHT22;25082;50.870;0.022;2023-11-19T11:40:28;18.60;74.60
37806;DHT22;25082;50.870;0.022;2023-11-19T11:42:54;18.60;73.70
37806;DHT22;25082;50.870;0.022;2023-11-19T11:45:35;18.60;73.30
37806;DHT22;25082;50.870;0.022;2023-11-19T11:48:05;18.50;73.40
37806;DHT22;25082;50.870;0.022;2023-11-19T11:50:34;18.40;73.10
37806;DHT22;25082;50.870;0.022;2023-11-19T11:55:37;18.50;73.70
37806;DHT22;25082;50.870;0.022;2023-11-19T11:58:03;18.50;73.90
37806;DHT22;25082;50.870;0.022;2023-11-19T12:00:30;18.50;73.90
37806;DHT22;25082;50.870;0.022;2023-11-19T12:02:57;18.50;74.10
37806;DHT22;25082;50.870;0.022;2023-11-19T12:05:24;18.50;74.10
37806;DHT22;25082;50.870;0.022;2023-11-19T12:08:04;18.50;74.30
37806;DHT22;25082;50.870;0.022;2023-11-19T12:10:36;18.60;74.60
37806;DHT22;25082;50.870;0.022;2023-11-19T12:13:05;18.60;75.00
37806;DHT22;25082;50.870;0.022;2023-11-19T12:15:32;18.60;75.30
37806;DHT22;25082;50.870;0.022;2023-11-19T12:17:58;18.60;75.40
37806;DHT22;25082;50.870;0.022;2023-11-19T12:20:25;18.70;75.90
37806;DHT22;25082;50.870;0.022;2023-11-19T12:22:52;18.70;77.00
37806;DHT22;25082;50.870;0.022;2023-11-19T12:25:19;18.70;79.30
37806;DHT22;25082;50.870;0.022;2023-11-19T12:27:49;18.70;81.20
37806;DHT22;25082;50.870;0.022;2023-11-19T12:30:23;18.70;82.60
37806;DHT22;25082;50.870;0.022;2023-11-19T12:32:50;18.70;82.90
37806;DHT22;25082;50.870;0.022;2023-11-19T12:35:16;18.70;81.40
37806;DHT22;25082;50.870;0.022;2023-11-19T12:37:46;18.70;80.70
37806;DHT22;25082;50.870;0.022;2023-11-19T12:40:13;18.70;80.60
37806;DHT22;25082;50.870;0.022;2023-11-19T12:42:39;18.70;82.20
37806;DHT22;25082;50.870;0.022;2023-11-19T12:45:05;18.70;81.80
37806;DHT22;25082;50.870;0.022;2023-11-19T12:47:31;18.70;81.30
37806;DHT22;25082;50.870;0.022;2023-11-19T12:49:57;18.70;80.40
37806;DHT22;25082;50.870;0.022;2023-11-19T12:52:23;18.70;79.90
37806;DHT22;25082;50.870;0.022;2023-11-19T12:54:49;18.70;79.70
37806;DHT22;25082;50.870;0.022;2023-11-19T12:57:15;18.70;79.50
37806;DHT22;25082;50.870;0.022;2023-11-19T12:59:41;18.70;79.30
37806;DHT22;25082;50.870;0.022;2023-11-19T13:02:07;18.70;79.50
37806;DHT22;25082;50.870;0.022;2023-11-19T13:04:33;18.60;79.40
37806;DHT22;25082;50.870;0.022;2023-11-19T13:07:00;18.70;79.30
37806;DHT22;25082;50.870;0.022;2023-11-19T13:09:27;18.70;79.20
37806;DHT22;25082;50.870;0.022;2023-11-19T13:11:56;18.70;79.20
37806;DHT22;25082;50.870;0.022;2023-11-19T13:14:22;18.70;79.20
37806;DHT22;25082;50.870;0.022;2023-11-19T13:16:49;18.80;79.50
37806;DHT22;25082;50.870;0.022;2023-11-19T13:19:15;18.80;79.40
37806;DHT22;25082;50.870;0.022;2023-11-19T13:21:45;18.80;79.20
37806;DHT22;25082;50.870;0.022;2023-11-19T13:24:13;18.70;79.30
37806;DHT22;25082;50.870;0.022;2023-11-19T13:26:39;18.70;80.20
37806;DHT22;25082;50.870;0.022;2023-11-19T13:29:05;18.70;80.50
37806;DHT22;25082;50.870;0.022;2023-11-19T13:31:30;18.70;79.90
37806;DHT22;25082;50.870;0.022;2023-11-19T13:33:56;18.70;79.70
37806;DHT22;25082;50.870;0.022;2023-11-19T13:36:24;18.80;79.90
37806;DHT22;25082;50.870;0.022;2023-11-19T13:38:50;18.80;79.70
37806;DHT22;25082;50.870;0.022;2023-11-19T13:41:16;18.80;79.90
37806;DHT22;25082;50.870;0.022;2023-11-19T13:43:42;18.80;79.70
37806;DHT22;25082;50.870;0.022;2023-11-19T13:46:09;18.80;79.70
37806;DHT22;25082;50.870;0.022;2023-11-19T13:48:38;18.80;79.80
37806;DHT22;25082;50.870;0.022;2023-11-19T13:51:04;18.70;79.80
37806;DHT22;25082;50.870;0.022;2023-11-19T13:53:30;18.70;79.80
37806;DHT22;25082;50.870;0.022;2023-11-19T13:55:56;18.70;79.80
37806;DHT22;25082;50.870;0.022;2023-11-19T13:58:22;18.70;79.70
37806;DHT22;25082;50.870;0.022;2023-11-19T14:00:47;18.80;79.80
37806;DHT22;25082;50.870;0.022;2023-11-19T14:03:13;18.80;79.80
37806;DHT22;25082;50.870;0.022;2023-11-19T14:05:39;18.70;79.70
37806;DHT22;25082;50.870;0.022;2023-11-19T14:08:07;18.70;79.80
37806;DHT22;25082;50.870;0.022;2023-11-19T14:10:39;18.70;79.80
37806;DHT22;25082;50.870;0.022;2023-11-19T14:13:08;18.70;79.60
37806;DHT22;25082;50.870;0.022;2023-11-19T14:15:34;18.70;79.50
37806;DHT22;25082;50.870;0.022;2023-11-19T14:18:01;18.70;79.60
37806;DHT22;25082;50.870;0.022;2023-11-19T14:20:27;18.70;79.60
37806;DHT22;25082;50.870;0.022;2023-11-19T14:22:53;18.70;79.50
37806;DHT22;25082;50.870;0.022;2023-11-19T14:25:19;18.70;79.30
37806;DHT22;25082;50.870;0.022;2023-11-19T14:27:45;18.70;79.20
37806;DHT22;25082;50.870;0.022;2023-11-19T14:30:13;18.70;79.20
37806;DHT22;25082;50.870;0.022;2023-11-19T14:32:41;18.70;79.00
37806;DHT22;25082;50.870;0.022;2023-11-19T14:35:11;18.70;79.10
37806;DHT22;25082;50.870;0.022;2023-11-19T14:37:37;18.70;79.00
37806;DHT22;25082;50.870;0.022;2023-11-19T14:40:03;18.70;78.80
37806;DHT22;25082;50.870;0.022;2023-11-19T14:42:34;18.60;78.70
37806;DHT22;25082;50.870;0.022;2023-11-19T14:44:59;18.60;78.70
37806;DHT22;25082;50.870;0.022;2023-11-19T14:47:25;18.60;78.80
37806;DHT22;25082;50.870;0.022;2023-11-19T14:49:51;18.60;78.80
37806;DHT22;25082;50.870;0.022;2023-11-19T14:52:17;18.60;79.00
37806;DHT22;25082;50.870;0.022;2023-11-19T14:54:43;18.60;79.00
37806;DHT22;25082;50.870;0.022;2023-11-19T14:57:08;18.60;79.00
37806;DHT22;25082;50.870;0.022;2023-11-19T14:59:38;18.60;78.80
37806;DHT22;25082;50.870;0.022;2023-11-19T15:02:04;18.60;78.90
37806;DHT22;25082;50.870;0.022;2023-11-19T15:04:31;18.60;78.90
37806;DHT22;25082;50.870;0.022;2023-11-19T15:06:57;18.60;78.90
37806;DHT22;25082;50.870;0.022;2023-11-19T15:09:24;18.60;79.00
37806;DHT22;25082;50.870;0.022;2023-11-19T15:11:50;18.60;79.20
37806;DHT22;25082;50.870;0.022;2023-11-19T15:14:16;18.60;79.00
37806;DHT22;25082;50.870;0.022;2023-11-19T15:16:45;18.60;79.20
37806;DHT22;25082;50.870;0.022;2023-11-19T15:19:11;18.60;79.50
37806;DHT22;25082;50.870;0.022;2023-11-19T15:21:41;18.60;79.60
37806;DHT22;25082;50.870;0.022;2023-11-19T15:24:08;18.60;79.80
37806;DHT22;25082;50.870;0.022;2023-11-19T15:26:37;18.60;80.00
37806;DHT22;25082;50.870;0.022;2023-11-19T15:29:04;18.60;80.10
37806;DHT22;25082;50.870;0.022;2023-11-19T15:31:30;18.60;80.20
37806;DHT22;25082;50.870;0.022;2023-11-19T15:33:56;18.60;80.30
37806;DHT22;25082;50.870;0.022;2023-11-19T15:36:22;18.60;80.20
37806;DHT22;25082;50.870;0.022;2023-11-19T15:38:48;18.60;80.30
37806;DHT22;25082;50.870;0.022;2023-11-19T15:41:14;18.60;80.00